Time;durP1;ratioP1;P1;durP2;ratioP2;P2;SDS_P1;SDS_P2;PMS_P1;PMS_P2;Temp;Humidity;BMP_temperature;BMP_pressure;BME280_temperature;BME280_humidity;BME280_pressure;Samples;Min_cycle;Max_cycle;Signal;HPM_P1;HPM_P2
2021/09/09 00:01:34;;;;;;;24.10;21.90;;;16.90;1.00;;;;;;5028085;28;20530;-82
2021/09/09 00:04:01;;;;;;;21.93;19.90;;;16.90;1.00;;;;;;5006304;28;21206;-81
2021/09/09 00:06:27;;;;;;;22.20;20.20;;;16.90;1.00;;;;;;5019848;28;20463;-81
2021/09/09 00:08:54;;;;;;;21.80;19.73;;;16.90;1.00;;;;;;5021309;28;20466;-80
2021/09/09 00:11:21;;;;;;;25.23;22.83;;;16.90;1.00;;;;;;5021194;28;20623;-82
2021/09/09 00:13:48;;;;;;;23.70;21.50;;;16.80;1.00;;;;;;5020450;28;20532;-82
2021/09/09 00:16:14;;;;;;;23.03;21.00;;;16.80;1.00;;;;;;5020450;28;20597;-82
2021/09/09 00:18:43;;;;;;;22.50;20.40;;;16.80;1.00;;;;;;5022439;28;20574;-83
2021/09/09 00:21:09;;;;;;;22.20;20.10;;;16.80;1.00;;;;;;5021421;28;20607;-83
2021/09/09 00:23:36;;;;;;;23.17;20.90;;;16.70;1.00;;;;;;5023937;28;20563;-82
2021/09/09 00:26:04;;;;;;;24.07;21.77;;;16.70;1.00;;;;;;5027108;28;20513;-83
2021/09/09 00:28:31;;;;;;;22.90;20.70;;;16.70;1.00;;;;;;5025045;28;21625;-83
2021/09/09 00:30:58;;;;;;;21.80;19.90;;;16.60;1.00;;;;;;5025342;28;20517;-83
2021/09/09 00:33:25;;;;;;;23.60;21.20;;;16.60;1.00;;;;;;5024102;28;20456;-83
2021/09/09 00:35:53;;;;;;;22.40;20.30;;;16.60;1.00;;;;;;5023274;28;20622;-83
2021/09/09 00:38:20;;;;;;;22.20;20.00;;;16.60;1.00;;;;;;5025240;28;20490;-83
2021/09/09 00:40:47;;;;;;;22.83;20.50;;;16.50;1.00;;;;;;5021663;28;20554;-83
2021/09/09 00:43:14;;;;;;;23.30;21.00;;;16.50;1.00;;;;;;5026434;28;20618;-81
2021/09/09 00:45:41;;;;;;;23.57;21.27;;;16.50;1.00;;;;;;5025344;28;20420;-82
2021/09/09 00:48:07;;;;;;;22.80;20.40;;;16.50;1.00;;;;;;5019648;28;20439;-83
2021/09/09 00:50:34;;;;;;;22.77;20.70;;;16.50;1.00;;;;;;5023794;28;21349;-83
2021/09/09 00:53:02;;;;;;;23.70;21.40;;;16.40;1.00;;;;;;5021276;28;20467;-82
2021/09/09 00:55:29;;;;;;;22.67;20.47;;;16.40;1.00;;;;;;5024305;28;20531;-82
2021/09/09 00:57:56;;;;;;;22.53;20.30;;;16.40;1.00;;;;;;5022647;28;20602;-83
2021/09/09 01:00:23;;;;;;;22.50;20.30;;;16.30;1.00;;;;;;5018913;28;20581;-83
2021/09/09 01:02:49;;;;;;;23.93;21.63;;;16.30;1.00;;;;;;5021338;28;20456;-83
2021/09/09 01:05:16;;;;;;;21.80;19.80;;;16.30;1.00;;;;;;5022018;28;20452;-82
2021/09/09 01:07:43;;;;;;;23.07;20.27;;;16.30;1.00;;;;;;5023283;28;20530;-82
2021/09/09 01:10:12;;;;;;;23.10;20.90;;;16.30;1.00;;;;;;5018791;28;20897;-82
2021/09/09 01:12:39;;;;;;;23.53;21.43;;;16.20;1.00;;;;;;5022710;28;20447;-82
2021/09/09 01:15:06;;;;;;;23.47;21.17;;;16.20;1.00;;;;;;5024447;28;20513;-82
2021/09/09 01:17:33;;;;;;;22.70;20.60;;;16.10;1.00;;;;;;5021522;28;20530;-83
2021/09/09 01:20:00;;;;;;;23.30;20.83;;;16.10;1.00;;;;;;5018907;28;21168;-83
2021/09/09 01:22:27;;;;;;;22.77;20.67;;;16.10;1.00;;;;;;5022052;28;20443;-82
2021/09/09 01:24:55;;;;;;;22.80;20.70;;;16.00;1.00;;;;;;5023209;28;20452;-83
2021/09/09 01:27:21;;;;;;;23.90;21.60;;;16.00;1.00;;;;;;5019997;28;20937;-82
2021/09/09 01:29:48;;;;;;;21.60;19.40;;;16.00;1.00;;;;;;5021440;28;20473;-82
2021/09/09 01:32:15;;;;;;;23.03;20.77;;;16.00;1.00;;;;;;5030758;28;20456;-83
2021/09/09 01:34:42;;;;;;;24.23;21.80;;;16.00;1.00;;;;;;5026965;28;20460;-82
2021/09/09 01:37:10;;;;;;;23.97;21.70;;;15.90;1.00;;;;;;5019238;28;20559;-82
2021/09/09 01:39:38;;;;;;;22.47;20.20;;;15.90;1.00;;;;;;5020775;28;20463;-83
2021/09/09 01:42:06;;;;;;;21.90;19.90;;;16.00;1.00;;;;;;5020488;28;20511;-82
2021/09/09 01:44:33;;;;;;;22.40;20.30;;;15.90;1.00;;;;;;5023681;28;21022;-82
2021/09/09 01:47:00;;;;;;;20.80;18.90;;;15.90;1.00;;;;;;5023803;28;20766;-83
2021/09/09 01:49:27;;;;;;;20.90;19.00;;;15.90;1.00;;;;;;5023747;28;20487;-82
2021/09/09 01:51:54;;;;;;;22.07;19.97;;;15.90;1.00;;;;;;5020231;28;20546;-82
2021/09/09 01:54:21;;;;;;;22.73;20.53;;;15.80;1.00;;;;;;5020669;28;20470;-83
2021/09/09 01:56:48;;;;;;;21.60;19.33;;;15.80;1.00;;;;;;5022137;28;20502;-82
2021/09/09 01:59:16;;;;;;;21.23;19.10;;;15.80;1.00;;;;;;5022286;28;21273;-82
2021/09/09 02:01:43;;;;;;;19.67;17.80;;;15.80;1.00;;;;;;5024966;28;20845;-81
2021/09/09 02:04:10;;;;;;;20.90;18.90;;;15.70;1.00;;;;;;5022171;28;20536;-82
2021/09/09 02:06:36;;;;;;;22.23;19.90;;;15.80;1.00;;;;;;5023394;28;20467;-82
2021/09/09 02:09:04;;;;;;;20.97;19.07;;;15.80;1.00;;;;;;5023789;28;20471;-82
2021/09/09 02:11:31;;;;;;;21.43;19.43;;;15.80;1.00;;;;;;5030808;28;20387;-83
2021/09/09 02:13:57;;;;;;;20.80;18.83;;;15.80;1.00;;;;;;5031107;28;20471;-80
2021/09/09 02:16:25;;;;;;;20.67;18.57;;;15.80;1.00;;;;;;5017800;28;21082;-81
2021/09/09 02:18:52;;;;;;;20.07;18.07;;;15.80;1.00;;;;;;5020474;28;20565;-83
2021/09/09 02:21:19;;;;;;;19.63;17.73;;;15.80;1.00;;;;;;5021219;28;20478;-83
2021/09/09 02:23:46;;;;;;;19.30;17.23;;;15.80;1.00;;;;;;5019447;28;20479;-81
2021/09/09 02:26:12;;;;;;;20.60;18.60;;;15.70;1.00;;;;;;5029503;28;20476;-81
2021/09/09 02:28:39;;;;;;;21.00;18.87;;;15.80;1.00;;;;;;5020571;28;21303;-82
2021/09/09 02:31:06;;;;;;;22.37;20.37;;;15.80;1.00;;;;;;5023085;28;20517;-83
2021/09/09 02:33:34;;;;;;;20.30;18.20;;;15.70;1.00;;;;;;5026202;28;20520;-84
2021/09/09 02:36:00;;;;;;;19.40;17.43;;;15.70;1.00;;;;;;5026944;28;20499;-83
2021/09/09 02:38:27;;;;;;;19.70;17.90;;;15.70;1.00;;;;;;5030747;28;20629;-82
2021/09/09 02:40:54;;;;;;;22.80;20.43;;;15.70;1.00;;;;;;5030577;28;20502;-84
2021/09/09 02:43:20;;;;;;;22.20;19.73;;;15.60;1.00;;;;;;5032846;28;20414;-83
2021/09/09 02:45:47;;;;;;;21.93;19.63;;;15.60;1.00;;;;;;5025876;28;20459;-82
2021/09/09 02:48:14;;;;;;;19.73;17.90;;;15.60;1.00;;;;;;5035248;28;20581;-82
2021/09/09 02:50:42;;;;;;;21.90;19.67;;;15.60;1.00;;;;;;5031933;28;21152;-82
2021/09/09 02:53:08;;;;;;;21.20;19.10;;;15.60;1.00;;;;;;5032005;28;20505;-81
2021/09/09 02:55:35;;;;;;;22.27;19.90;;;15.60;1.00;;;;;;5033798;28;20479;-82
2021/09/09 02:58:02;;;;;;;21.67;19.57;;;15.50;1.00;;;;;;5029291;28;20450;-82
2021/09/09 03:00:28;;;;;;;21.23;19.13;;;15.50;1.00;;;;;;5029465;28;22428;-83
2021/09/09 03:02:55;;;;;;;20.07;18.13;;;15.40;1.00;;;;;;5034642;28;20528;-83
2021/09/09 03:05:22;;;;;;;20.07;18.07;;;15.40;1.00;;;;;;5028376;28;20605;-81
2021/09/09 03:07:50;;;;;;;21.97;19.87;;;15.40;1.00;;;;;;5035088;28;20486;-84
2021/09/09 03:10:16;;;;;;;20.73;18.77;;;15.40;1.00;;;;;;5025247;28;20579;-83
2021/09/09 03:12:43;;;;;;;21.73;19.50;;;15.30;1.00;;;;;;5016632;28;21025;-82
2021/09/09 03:15:10;;;;;;;21.13;19.33;;;15.30;1.00;;;;;;5025131;28;20639;-83
2021/09/09 03:17:37;;;;;;;21.20;19.17;;;15.30;1.00;;;;;;5029527;28;20479;-84
2021/09/09 03:20:06;;;;;;;21.70;19.60;;;15.30;1.00;;;;;;5023747;28;20923;-84
2021/09/09 03:22:32;;;;;;;23.73;21.53;;;15.30;1.00;;;;;;5029298;28;20605;-84
2021/09/09 03:25:00;;;;;;;22.27;20.17;;;15.20;1.00;;;;;;5028335;28;20421;-83
2021/09/09 03:27:27;;;;;;;22.23;20.03;;;15.20;1.00;;;;;;5029165;28;20462;-83
2021/09/09 03:29:54;;;;;;;23.73;21.23;;;15.20;1.00;;;;;;5028823;28;20464;-83
2021/09/09 03:32:21;;;;;;;22.60;20.03;;;15.20;1.00;;;;;;5029037;28;20461;-84
2021/09/09 03:34:48;;;;;;;23.30;20.83;;;15.20;1.00;;;;;;5031308;28;22090;-83
2021/09/09 03:37:15;;;;;;;23.13;20.90;;;15.10;1.00;;;;;;5028303;28;20527;-84
2021/09/09 03:39:41;;;;;;;22.20;20.17;;;15.10;1.00;;;;;;5027701;28;20607;-84
2021/09/09 03:42:09;;;;;;;23.63;20.80;;;15.00;1.00;;;;;;5029875;28;20511;-83
2021/09/09 03:44:36;;;;;;;22.10;20.10;;;15.00;1.00;;;;;;5030346;28;20442;-83
2021/09/09 03:47:03;;;;;;;22.80;20.70;;;15.00;1.00;;;;;;5028972;28;20457;-83
2021/09/09 03:49:30;;;;;;;23.53;21.20;;;15.00;1.00;;;;;;5033135;28;20438;-83
2021/09/09 03:51:57;;;;;;;25.07;22.67;;;15.00;1.00;;;;;;5029846;28;20462;-84
2021/09/09 03:54:24;;;;;;;23.33;21.00;;;15.00;1.00;;;;;;5017538;28;20466;-83
2021/09/09 03:56:50;;;;;;;23.10;21.00;;;14.90;1.00;;;;;;5030094;28;20545;-83
2021/09/09 03:59:18;;;;;;;23.63;21.20;;;14.90;1.00;;;;;;5036167;28;20477;-83
2021/09/09 04:01:45;;;;;;;25.43;22.83;;;14.90;1.00;;;;;;5039375;28;20758;-81
2021/09/09 04:04:12;;;;;;;23.53;21.33;;;14.80;1.00;;;;;;5035477;28;20434;-81
2021/09/09 04:06:38;;;;;;;31.20;23.50;;;14.80;1.00;;;;;;5040529;28;20446;-82
2021/09/09 04:09:05;;;;;;;24.80;22.50;;;14.80;1.00;;;;;;5043261;28;20438;-79
2021/09/09 04:11:32;;;;;;;24.17;21.73;;;14.80;1.00;;;;;;5045509;28;21912;-82
2021/09/09 04:13:59;;;;;;;25.00;22.23;;;14.80;1.00;;;;;;5045452;28;20552;-85
2021/09/09 04:16:27;;;;;;;22.07;20.00;;;14.80;1.00;;;;;;5047830;28;20460;-82
2021/09/09 04:18:53;;;;;;;23.47;21.17;;;14.80;1.00;;;;;;5043830;28;20445;-84
2021/09/09 04:21:20;;;;;;;24.00;21.70;;;14.80;1.00;;;;;;5041925;28;20531;-79
2021/09/09 04:23:47;;;;;;;25.07;22.57;;;14.80;1.00;;;;;;5037126;28;20411;-79
2021/09/09 04:26:14;;;;;;;24.47;22.13;;;14.80;1.00;;;;;;5038031;28;20450;-79
2021/09/09 04:28:40;;;;;;;28.07;25.27;;;14.80;1.00;;;;;;5031769;28;20449;-77
2021/09/09 04:31:07;;;;;;;23.43;20.93;;;14.70;1.00;;;;;;5029282;28;20450;-77
2021/09/09 04:33:35;;;;;;;25.17;22.67;;;14.70;1.00;;;;;;5030643;28;20477;-77
2021/09/09 04:36:03;;;;;;;22.20;19.90;;;14.70;1.00;;;;;;5024233;28;20565;-79
2021/09/09 04:38:29;;;;;;;25.10;22.70;;;14.70;1.00;;;;;;5025735;28;20470;-79
2021/09/09 04:40:56;;;;;;;22.70;20.60;;;14.70;1.00;;;;;;5034161;28;20531;-78
2021/09/09 04:43:23;;;;;;;24.60;22.07;;;14.70;1.00;;;;;;5025078;28;20481;-79
2021/09/09 04:45:49;;;;;;;23.23;20.87;;;14.70;1.00;;;;;;5031598;28;21256;-80
2021/09/09 04:48:16;;;;;;;22.57;20.37;;;14.70;1.00;;;;;;5029915;28;21438;-79
2021/09/09 04:50:44;;;;;;;22.97;20.80;;;14.70;1.00;;;;;;5022962;28;21075;-80
2021/09/09 04:53:11;;;;;;;23.37;21.00;;;14.70;1.00;;;;;;5025271;28;21908;-80
2021/09/09 04:55:37;;;;;;;24.30;21.90;;;14.70;1.00;;;;;;5028191;28;20459;-80
2021/09/09 04:58:04;;;;;;;24.90;22.60;;;14.70;1.00;;;;;;5025462;28;20497;-79
2021/09/09 05:00:31;;;;;;;21.77;19.67;;;14.70;1.00;;;;;;5021848;28;20581;-79
2021/09/09 05:02:58;;;;;;;25.23;22.77;;;14.70;1.00;;;;;;5026729;28;21481;-80
2021/09/09 05:05:24;;;;;;;23.60;21.30;;;14.70;1.00;;;;;;5024777;28;20498;-79
2021/09/09 05:07:52;;;;;;;22.83;20.50;;;14.70;1.00;;;;;;5034205;28;20482;-79
2021/09/09 05:10:19;;;;;;;22.20;19.77;;;14.70;1.00;;;;;;5029749;28;20454;-80
2021/09/09 05:12:46;;;;;;;22.40;20.37;;;14.70;1.00;;;;;;5028108;28;20404;-79
2021/09/09 05:15:12;;;;;;;20.60;18.50;;;14.70;1.00;;;;;;5013107;28;20461;-79
2021/09/09 05:17:39;;;;;;;22.10;19.90;;;14.80;1.00;;;;;;5032778;28;21294;-80
2021/09/09 05:20:07;;;;;;;21.80;19.70;;;14.80;1.00;;;;;;5032040;28;20979;-81
2021/09/09 05:22:34;;;;;;;24.00;20.30;;;14.90;1.00;;;;;;5023139;28;21509;-79
2021/09/09 05:25:03;;;;;;;20.77;18.70;;;14.90;1.00;;;;;;5028187;28;23097;-80
2021/09/09 05:27:30;;;;;;;24.80;21.80;;;14.90;1.00;;;;;;5034157;28;20445;-82
2021/09/09 05:29:57;;;;;;;24.03;21.60;;;15.00;1.00;;;;;;5029938;28;20470;-81
2021/09/09 05:32:23;;;;;;;20.77;18.73;;;15.10;1.00;;;;;;5043288;28;20520;-81
2021/09/09 05:34:50;;;;;;;19.90;18.10;;;15.20;1.00;;;;;;5040932;28;20947;-82
2021/09/09 05:37:17;;;;;;;19.70;17.70;;;15.20;1.00;;;;;;5043327;28;20422;-82
2021/09/09 05:39:44;;;;;;;19.93;18.00;;;15.30;1.00;;;;;;5043158;28;20459;-81
2021/09/09 05:42:11;;;;;;;20.43;18.37;;;15.40;1.00;;;;;;5042786;28;20473;-81
2021/09/09 05:44:38;;;;;;;19.80;18.00;;;15.40;1.00;;;;;;5043825;28;20465;-81
2021/09/09 05:47:05;;;;;;;20.23;18.23;;;15.50;1.00;;;;;;5028121;28;20497;-81
2021/09/09 05:49:32;;;;;;;19.57;17.50;;;15.50;1.00;;;;;;5044633;28;20556;-80
2021/09/09 05:51:59;;;;;;;21.07;18.80;;;15.50;1.00;;;;;;5043258;28;20442;-80
2021/09/09 05:54:26;;;;;;;19.40;17.50;;;15.60;1.00;;;;;;5051875;28;20462;-81
2021/09/09 05:56:52;;;;;;;18.93;17.13;;;15.70;1.00;;;;;;5046426;28;20446;-80
2021/09/09 05:59:20;;;;;;;17.97;16.20;;;15.60;1.00;;;;;;5046468;28;20485;-81
2021/09/09 06:01:49;;;;;;;18.20;16.30;;;15.70;1.00;;;;;;5042687;28;20478;-80
2021/09/09 06:04:16;;;;;;;20.87;16.90;;;15.70;1.00;;;;;;5031135;28;20450;-81
2021/09/09 06:06:43;;;;;;;24.97;22.50;;;15.70;1.00;;;;;;5055943;28;20427;-80
2021/09/09 06:09:09;;;;;;;20.63;18.63;;;15.70;1.00;;;;;;5047707;28;21751;-80
2021/09/09 06:11:36;;;;;;;18.00;16.00;;;15.80;1.00;;;;;;5048670;28;20500;-81
2021/09/09 06:14:03;;;;;;;18.57;16.80;;;15.90;1.00;;;;;;5044722;28;20458;-81
2021/09/09 06:16:31;;;;;;;18.90;17.10;;;15.90;1.00;;;;;;5048410;28;20474;-81
2021/09/09 06:18:58;;;;;;;20.50;17.30;;;15.90;1.00;;;;;;5048163;28;20466;-79
2021/09/09 06:21:25;;;;;;;19.40;17.60;;;15.90;1.00;;;;;;5047632;28;20530;-82
2021/09/09 06:23:52;;;;;;;20.30;17.97;;;15.90;1.00;;;;;;5048692;28;20450;-81
2021/09/09 06:26:19;;;;;;;20.20;18.10;;;16.00;1.00;;;;;;5051527;28;21021;-80
2021/09/09 06:28:46;;;;;;;19.73;17.47;;;16.00;1.00;;;;;;5054955;28;20439;-80
2021/09/09 06:31:13;;;;;;;17.27;15.47;;;16.10;1.00;;;;;;5051906;28;20499;-80
2021/09/09 06:33:41;;;;;;;18.43;16.83;;;16.20;1.00;;;;;;5047675;28;20950;-80
2021/09/09 06:36:08;;;;;;;18.47;16.77;;;16.10;1.00;;;;;;5058734;28;20432;-79
2021/09/09 06:38:35;;;;;;;18.03;16.33;;;16.20;1.00;;;;;;5027896;28;20550;-78
2021/09/09 06:41:01;;;;;;;17.27;15.47;;;16.30;1.00;;;;;;5037667;28;20470;-78
2021/09/09 06:43:28;;;;;;;18.30;16.40;;;16.40;1.00;;;;;;5040526;28;21134;-78
2021/09/09 06:45:55;;;;;;;16.90;15.30;;;16.40;1.00;;;;;;5036059;28;20435;-77
2021/09/09 06:48:21;;;;;;;17.50;15.90;;;16.50;1.00;;;;;;5036187;28;20587;-78
2021/09/09 06:50:49;;;;;;;16.43;14.93;;;16.60;1.00;;;;;;5035660;28;20435;-79
2021/09/09 06:53:16;;;;;;;17.20;15.57;;;16.70;1.00;;;;;;5029100;28;20484;-79
2021/09/09 06:55:43;;;;;;;21.73;16.73;;;16.80;1.00;;;;;;5033988;28;20442;-79
2021/09/09 06:58:09;;;;;;;19.97;15.20;;;17.00;1.00;;;;;;5027856;28;20650;-80
2021/09/09 07:00:36;;;;;;;16.70;14.97;;;17.20;1.00;;;;;;5025539;28;20514;-78
2021/09/09 07:03:03;;;;;;;16.40;13.73;;;17.30;1.00;;;;;;5020188;28;20549;-79
2021/09/09 07:05:30;;;;;;;16.60;14.93;;;17.50;1.00;;;;;;5020198;28;20534;-78
2021/09/09 07:07:58;;;;;;;15.13;13.53;;;17.50;1.00;;;;;;5024266;28;20497;-79
2021/09/09 07:10:25;;;;;;;14.10;12.53;;;17.60;1.00;;;;;;5019420;28;20461;-78
2021/09/09 07:12:52;;;;;;;14.90;13.40;;;17.70;1.00;;;;;;5026078;28;20463;-78
2021/09/09 07:15:18;;;;;;;14.67;13.30;;;17.90;1.00;;;;;;5029962;28;20487;-79
2021/09/09 07:17:45;;;;;;;15.80;13.60;;;17.90;1.00;;;;;;5023862;28;20552;-79
2021/09/09 07:20:14;;;;;;;15.47;13.93;;;18.10;1.00;;;;;;5032426;28;20436;-79
2021/09/09 07:22:41;;;;;;;15.13;13.50;;;18.10;1.00;;;;;;5033065;28;20603;-78
2021/09/09 07:25:10;;;;;;;13.23;11.80;;;18.30;1.00;;;;;;5023095;28;20448;-79
2021/09/09 07:27:37;;;;;;;14.43;12.10;;;18.50;1.00;;;;;;5023206;28;20460;-78
2021/09/09 07:30:05;;;;;;;13.30;12.00;;;18.70;1.00;;;;;;5021075;28;20600;-79
2021/09/09 07:32:33;;;;;;;13.37;11.60;;;18.90;1.00;;;;;;5020146;28;20634;-78
2021/09/09 07:35:00;;;;;;;12.77;11.47;;;19.00;1.00;;;;;;5021838;28;20558;-82
2021/09/09 07:37:27;;;;;;;11.23;10.03;;;19.10;1.00;;;;;;5023575;28;20527;-80
2021/09/09 07:39:53;;;;;;;12.60;10.90;;;19.20;1.00;;;;;;5017691;28;20460;-77
2021/09/09 07:42:21;;;;;;;15.43;11.17;;;19.30;1.00;;;;;;5019714;28;20554;-78
2021/09/09 07:44:49;;;;;;;12.93;11.00;;;19.40;1.00;;;;;;5026011;28;21219;-80
2021/09/09 07:47:16;;;;;;;11.53;10.40;;;19.40;1.00;;;;;;5017847;28;20436;-78
2021/09/09 07:49:43;;;;;;;11.30;10.20;;;19.60;1.00;;;;;;5020877;28;20621;-78
2021/09/09 07:52:09;;;;;;;10.70;9.60;;;19.70;1.00;;;;;;5024184;28;20460;-78
2021/09/09 07:54:36;;;;;;;10.67;9.60;;;19.70;1.00;;;;;;5025643;28;20546;-79
2021/09/09 07:57:03;;;;;;;10.30;9.17;;;19.80;1.00;;;;;;5018862;28;20437;-78
2021/09/09 07:59:31;;;;;;;10.47;9.47;;;19.80;1.00;;;;;;5018799;28;21011;-79
2021/09/09 08:01:58;;;;;;;11.23;10.03;;;20.00;1.00;;;;;;5021308;28;20515;-78
2021/09/09 08:04:24;;;;;;;10.10;9.03;;;20.00;1.00;;;;;;5022237;28;21034;-78
2021/09/09 08:06:51;;;;;;;10.47;9.37;;;20.10;1.00;;;;;;5025980;28;20453;-78
2021/09/09 08:09:18;;;;;;;12.30;8.97;;;20.20;1.00;;;;;;5026672;28;20569;-79
2021/09/09 08:11:45;;;;;;;10.30;9.27;;;20.30;1.00;;;;;;5027083;28;20726;-80
2021/09/09 08:14:11;;;;;;;12.03;9.03;;;20.30;1.00;;;;;;5034727;28;20459;-79
2021/09/09 08:16:39;;;;;;;9.93;8.93;;;20.40;1.00;;;;;;5023132;28;20588;-79
2021/09/09 08:19:06;;;;;;;9.07;8.20;;;20.60;1.00;;;;;;5029389;28;20966;-80
2021/09/09 08:21:34;;;;;;;10.70;8.93;;;20.70;1.00;;;;;;5026186;28;21057;-79
2021/09/09 08:24:01;;;;;;;11.53;8.60;;;20.90;1.00;;;;;;5027529;28;21041;-78
2021/09/09 08:26:27;;;;;;;11.10;8.20;;;21.00;1.00;;;;;;5021249;28;20474;-78
2021/09/09 08:28:54;;;;;;;11.43;8.97;;;21.10;1.00;;;;;;5020860;28;21188;-78
2021/09/09 08:31:21;;;;;;;10.97;9.03;;;21.20;1.00;;;;;;5021667;28;21789;-78
2021/09/09 08:33:49;;;;;;;10.43;8.63;;;21.30;1.00;;;;;;5022494;28;21256;-79
2021/09/09 08:36:18;;;;;;;12.63;9.00;;;21.50;1.00;;;;;;5027054;28;20524;-79
2021/09/09 08:38:45;;;;;;;11.60;9.30;;;21.60;1.00;;;;;;5028713;28;20772;-78
2021/09/09 08:41:12;;;;;;;12.20;10.30;;;21.70;1.00;;;;;;5028366;28;20451;-77
2021/09/09 08:43:39;;;;;;;9.90;8.87;;;21.70;1.00;;;;;;5024334;28;20460;-78
2021/09/09 08:46:11;;;;;;;10.10;7.93;;;21.80;1.00;;;;;;5027755;28;20452;-79
2021/09/09 08:48:39;;;;;;;8.90;7.80;;;21.80;1.00;;;;;;5039632;28;20507;-78
2021/09/09 08:51:07;;;;;;;8.90;8.00;;;21.90;1.00;;;;;;5021176;28;20462;-79
2021/09/09 08:53:35;;;;;;;9.77;8.83;;;22.00;1.00;;;;;;5020503;28;20433;-78
2021/09/09 08:56:01;;;;;;;11.43;9.43;;;22.10;1.00;;;;;;5024727;28;20467;-80
2021/09/09 08:58:28;;;;;;;10.50;8.70;;;22.30;1.00;;;;;;5025820;28;20452;-79
2021/09/09 09:01:09;;;;;;;8.83;7.93;;;22.50;1.00;;;;;;5020551;28;20623;-80
2021/09/09 09:03:44;;;;;;;11.30;8.50;;;22.60;1.00;;;;;;5021935;28;20475;-79
2021/09/09 09:06:32;;;;;;;10.10;9.07;;;22.70;1.00;;;;;;5021649;28;20497;-79
2021/09/09 09:09:02;;;;;;;11.70;8.50;;;22.80;1.00;;;;;;5015670;28;21355;-79
2021/09/09 09:11:31;;;;;;;11.40;9.60;;;22.90;1.00;;;;;;5027447;28;20448;-79
2021/09/09 09:13:58;;;;;;;10.93;8.17;;;23.00;1.00;;;;;;5025316;28;21298;-78
2021/09/09 09:16:26;;;;;;;15.13;10.20;;;23.20;1.00;;;;;;5023050;28;20420;-79
2021/09/09 09:18:53;;;;;;;8.90;8.10;;;23.60;1.00;;;;;;5021940;28;20593;-79
2021/09/09 09:21:22;;;;;;;10.00;9.03;;;24.60;1.00;;;;;;5022533;28;20483;-77
2021/09/09 09:23:52;;;;;;;11.17;8.10;;;25.80;1.00;;;;;;5014486;28;20483;-78
2021/09/09 09:26:19;;;;;;;17.03;11.33;;;27.40;1.00;;;;;;5036058;28;20455;-78
2021/09/09 09:28:47;;;;;;;12.43;10.03;;;28.70;1.00;;;;;;5032612;28;20791;-80
2021/09/09 09:31:16;;;;;;;8.47;7.80;;;29.80;1.00;;;;;;5024445;28;20537;-78
2021/09/09 09:33:45;;;;;;;10.10;7.87;;;31.00;1.00;;;;;;5007875;28;20506;-79
2021/09/09 09:36:14;;;;;;;11.10;8.33;;;31.70;1.00;;;;;;5022766;28;21124;-78
2021/09/09 09:38:40;;;;;;;10.33;7.80;;;32.50;1.00;;;;;;5021656;28;20448;-79
2021/09/09 09:41:08;;;;;;;9.73;8.43;;;33.50;1.00;;;;;;5018245;28;20684;-79
2021/09/09 09:43:35;;;;;;;11.13;8.90;;;34.10;1.00;;;;;;5019357;28;20472;-80
2021/09/09 09:46:04;;;;;;;11.43;8.00;;;34.50;1.00;;;;;;5020800;28;22578;-78
2021/09/09 09:48:33;;;;;;;9.33;7.27;;;33.70;1.00;;;;;;5021363;28;20449;-79
2021/09/09 09:51:02;;;;;;;9.43;7.63;;;33.60;1.00;;;;;;5021805;28;21133;-79
2021/09/09 09:53:29;;;;;;;9.00;7.63;;;33.60;1.00;;;;;;5020811;28;21780;-79
2021/09/09 09:55:56;;;;;;;14.17;8.30;;;34.10;1.00;;;;;;5023845;28;21412;-77
2021/09/09 09:58:24;;;;;;;9.93;8.07;;;34.30;1.00;;;;;;5019829;28;20453;-78
2021/09/09 10:00:52;;;;;;;8.03;7.33;;;34.70;1.00;;;;;;5021190;28;20460;-79
2021/09/09 10:03:21;;;;;;;9.17;7.50;;;34.60;1.00;;;;;;5022282;28;20460;-80
2021/09/09 10:05:52;;;;;;;8.30;7.47;;;34.80;1.00;;;;;;5021933;28;20465;-80
2021/09/09 10:08:19;;;;;;;8.80;7.97;;;35.20;1.00;;;;;;5021051;28;20464;-80
2021/09/09 10:10:47;;;;;;;10.63;7.50;;;35.50;1.00;;;;;;5027456;28;20461;-80
2021/09/09 10:13:17;;;;;;;13.73;10.07;;;35.30;1.00;;;;;;5030349;28;20413;-81
2021/09/09 10:15:49;;;;;;;8.33;7.50;;;35.20;1.00;;;;;;5022676;28;20524;-80
2021/09/09 10:18:16;;;;;;;7.93;7.23;;;34.60;1.00;;;;;;5024009;28;20459;-80
2021/09/09 10:20:45;;;;;;;9.90;8.00;;;34.80;1.00;;;;;;5023877;28;20500;-80
2021/09/09 10:23:14;;;;;;;9.67;8.73;;;35.30;1.00;;;;;;5029520;28;21023;-79
2021/09/09 10:25:42;;;;;;;8.37;7.67;;;35.30;1.00;;;;;;5038866;28;21458;-81
2021/09/09 10:28:45;;;;;;;7.90;7.20;;;35.00;1.00;;;;;;5021424;28;21504;-79
2021/09/09 10:31:14;;;;;;;7.90;7.13;;;35.00;1.00;;;;;;5023422;28;20556;-81
2021/09/09 10:33:46;;;;;;;9.47;8.10;;;35.70;1.00;;;;;;5021360;28;20445;-81
2021/09/09 10:36:39;;;;;;;10.67;6.80;;;36.50;1.00;;;;;;5022284;28;20475;-78
2021/09/09 10:39:10;;;;;;;7.10;6.40;;;37.10;1.00;;;;;;5021577;28;20537;-80
2021/09/09 10:41:37;;;;;;;7.03;6.43;;;37.80;1.00;;;;;;5008817;28;20458;-79
2021/09/09 10:44:06;;;;;;;9.00;8.17;;;37.50;1.00;;;;;;5020534;28;20433;-80
2021/09/09 10:46:39;;;;;;;7.17;6.53;;;38.00;1.00;;;;;;5021428;28;21041;-79
2021/09/09 10:49:18;;;;;;;8.53;7.73;;;38.20;1.00;;;;;;5017707;28;20428;-81
2021/09/09 10:52:12;;;;;;;9.73;7.13;;;38.20;1.00;;;;;;5022112;28;20449;-79
2021/09/09 10:55:03;;;;;;;8.47;7.67;;;38.10;1.00;;;;;;5032545;28;21099;-79
2021/09/09 10:57:29;;;;;;;12.00;8.40;;;38.10;1.00;;;;;;5030541;28;20460;-81
2021/09/09 10:59:56;;;;;;;7.70;7.00;;;38.20;1.00;;;;;;5024669;28;20621;-79
2021/09/09 11:02:24;;;;;;;9.50;7.43;;;38.50;1.00;;;;;;5022819;28;20731;-80
2021/09/09 11:04:51;;;;;;;10.03;7.23;;;38.90;1.00;;;;;;5020753;28;20452;-80
2021/09/09 11:07:26;;;;;;;9.20;8.30;;;38.60;1.00;;;;;;5023647;28;20447;-79
2021/09/09 11:10:05;;;;;;;7.70;6.90;;;38.40;1.00;;;;;;5025312;28;20451;-80
2021/09/09 11:12:36;;;;;;;9.77;7.13;;;38.50;1.00;;;;;;5025262;28;20456;-80
2021/09/09 11:15:05;;;;;;;8.80;7.07;;;38.90;1.00;;;;;;5030208;28;20476;-80
2021/09/09 11:17:33;;;;;;;8.80;7.40;;;39.70;1.00;;;;;;5028624;28;20486;-79
2021/09/09 11:20:02;;;;;;;9.10;7.93;;;40.40;1.00;;;;;;5035144;28;20499;-79
2021/09/09 11:22:29;;;;;;;8.33;7.63;;;40.60;1.00;;;;;;5024647;28;20527;-80
2021/09/09 11:24:57;;;;;;;8.00;7.10;;;40.70;1.00;;;;;;5028319;28;21303;-76
2021/09/09 11:27:29;;;;;;;10.00;7.67;;;40.80;1.00;;;;;;5015491;28;20819;-79
2021/09/09 11:29:57;;;;;;;7.90;6.97;;;41.20;1.00;;;;;;5028710;28;20421;-79
2021/09/09 11:32:24;;;;;;;8.27;7.40;;;41.50;1.00;;;;;;5035618;28;20431;-78
2021/09/09 11:34:52;;;;;;;10.10;9.10;;;41.50;1.00;;;;;;5034431;28;22102;-79
2021/09/09 11:37:19;;;;;;;8.50;7.80;;;40.40;1.00;;;;;;5033909;28;20488;-78
2021/09/09 11:39:45;;;;;;;8.10;7.40;;;39.10;1.00;;;;;;5029506;28;20457;-79
2021/09/09 11:42:12;;;;;;;7.70;7.00;;;39.00;1.00;;;;;;5027799;28;20453;-78
2021/09/09 11:44:41;;;;;;;8.10;6.77;;;39.80;1.00;;;;;;5033333;28;20510;-79
2021/09/09 11:47:12;;;;;;;8.40;7.57;;;40.40;1.00;;;;;;5032610;28;20453;-78
2021/09/09 11:49:39;;;;;;;8.57;7.87;;;40.90;1.00;;;;;;5028193;28;20491;-78
2021/09/09 11:52:08;;;;;;;8.30;7.50;;;41.20;1.00;;;;;;5030349;28;20464;-78
2021/09/09 11:54:37;;;;;;;10.03;7.83;;;41.50;1.00;;;;;;5026051;28;20468;-78
2021/09/09 11:57:06;;;;;;;8.23;7.40;;;42.00;1.00;;;;;;5027140;28;23666;-78
2021/09/09 11:59:34;;;;;;;7.63;7.00;;;41.70;1.00;;;;;;5026727;28;20456;-77
2021/09/09 12:02:06;;;;;;;9.57;6.87;;;41.90;1.00;;;;;;5027058;28;20425;-78
2021/09/09 12:04:35;;;;;;;12.73;11.60;;;41.60;1.00;;;;;;5023653;28;20464;-80
2021/09/09 12:07:02;;;;;;;8.07;6.97;;;41.90;1.00;;;;;;5032022;28;20432;-78
2021/09/09 12:09:32;;;;;;;7.30;6.70;;;41.60;1.00;;;;;;5004605;28;20548;-79
2021/09/09 12:12:05;;;;;;;7.63;6.93;;;41.70;1.00;;;;;;5021824;28;20457;-77
2021/09/09 12:14:32;;;;;;;9.07;7.23;;;42.20;1.00;;;;;;5024284;28;20469;-79
2021/09/09 12:17:11;;;;;;;7.37;6.30;;;42.70;1.00;;;;;;5017657;28;20891;-77
2021/09/09 12:19:58;;;;;;;7.30;6.80;;;42.50;1.00;;;;;;5006454;28;20455;-78
2021/09/09 12:22:49;;;;;;;6.97;6.10;;;42.40;1.00;;;;;;5018768;28;22137;-78
2021/09/09 12:25:25;;;;;;;7.70;7.10;;;42.50;1.00;;;;;;5021557;28;20496;-78
2021/09/09 12:28:00;;;;;;;7.60;6.80;;;42.80;1.00;;;;;;5022328;28;20456;-79
2021/09/09 12:30:29;;;;;;;8.83;7.60;;;42.40;1.00;;;;;;5026513;28;20970;-78
2021/09/09 12:32:56;;;;;;;7.80;7.10;;;42.50;1.00;;;;;;5003172;28;20495;-79
2021/09/09 12:35:24;;;;;;;8.10;7.40;;;42.70;1.00;;;;;;5020710;28;20428;-79
2021/09/09 12:38:06;;;;;;;9.00;6.97;;;42.60;1.00;;;;;;5017818;28;20440;-77
2021/09/09 12:40:46;;;;;;;8.47;7.07;;;42.80;1.00;;;;;;5017768;28;20473;-79
2021/09/09 12:43:28;;;;;;;7.20;6.70;;;43.40;1.00;;;;;;5023200;28;20472;-79
2021/09/09 12:45:56;;;;;;;7.73;7.03;;;43.50;1.00;;;;;;5024631;28;20456;-78
2021/09/09 12:48:23;;;;;;;7.77;7.00;;;42.50;1.00;;;;;;5028480;28;21377;-77